KETH

Details ICAO KETH
Name WHEATON MUNI
Region United States
Timezone America/Chicago (UTC-6.0)
Plans Departing 0
Arriving 0
Stats Elevation 1,025 ft / 312 m (AMSL)
Location 45.780628° -96.543809°
Runways 2
Magnetic Variation 2.794° E
Sunrise 2017-12-15 14:02:05 UTC / 2017-12-15 08:02:05 Local
Sunset 2017-12-15 22:43:36 UTC / 2017-12-15 16:43:36 Local
Advertisement - Login to hide

Runways

ID Width Length Bearing (true) Bearing (mag) Surface Threshold Offset Overrun Length
04 175 ft / 53 m 1,915 ft / 584 m 60.16° 57.37° Grass 0 ft / 0 m 0 ft / 0 m
16 75 ft / 23 m 3,300 ft / 1,006 m 164.08° 161.29° Asphalt 0 ft / 0 m 0 ft / 0 m
22 175 ft / 53 m 1,915 ft / 584 m 240.17° 237.38° Grass 0 ft / 0 m 0 ft / 0 m
34 75 ft / 23 m 3,300 ft / 1,006 m 344.09° 341.30° Asphalt 0 ft / 0 m 0 ft / 0 m

Map

Weather


0- 5 10 15 20 25 30 35+ Temperature / ° C

Clouds and Precipitation
Forecast for 2017-12-15 18:00 UTC. Updated 18 minutes ago

Ground ~20,000 ft ~40,000 ft Winds

METAR

KETH 151534Z AUTO 10004KT 10SM SCT038 M05/M07 A2988 RMK AO2

TAF

Not found

Frequencies

Unicom 122.90 MHz CTAF
Unicom 122.80 MHz UNICOM
Warning: Do not use this data for real-world aviation or navigation. No guarantee of current accuracy is given.